Time;durP1;ratioP1;P1;durP2;ratioP2;P2;SDS_P1;SDS_P2;PMS_P1;PMS_P2;Temp;Humidity;BMP_temperature;BMP_pressure;BME280_temperature;BME280_humidity;BME280_pressure;Samples;Min_cycle;Max_cycle;Signal;HPM_P1;HPM_P2
2022/11/26 00:00:42;;;;;;;;;37.00;30.33;;;;;;;;5105139;27;47201;-71
2022/11/26 00:03:09;;;;;;;;;33.33;30.67;;;;;;;;5135649;27;45386;-72
2022/11/26 00:05:35;;;;;;;;;35.33;31.33;;;;;;;;5133660;27;45713;-70
2022/11/26 00:08:01;;;;;;;;;30.33;27.00;;;;;;;;5129660;27;46097;-70
2022/11/26 00:10:28;;;;;;;;;33.00;31.00;;;;;;;;5107394;27;48432;-71
2022/11/26 00:12:54;;;;;;;;;39.00;33.67;;;;;;;;5122264;27;45346;-71
2022/11/26 00:15:21;;;;;;;;;38.67;32.00;;;;;;;;5124087;27;45638;-73
2022/11/26 00:17:47;;;;;;;;;37.00;30.67;;;;;;;;5112539;27;46018;-71
2022/11/26 00:20:13;;;;;;;;;30.00;27.00;;;;;;;;5128742;27;45624;-72
2022/11/26 00:22:40;;;;;;;;;33.33;31.00;;;;;;;;5121602;27;45472;-72
2022/11/26 00:25:05;;;;;;;;;30.33;27.00;;;;;;;;5129530;27;45861;-70
2022/11/26 00:27:31;;;;;;;;;32.00;27.33;;;;;;;;5127303;27;45831;-71
2022/11/26 00:29:56;;;;;;;;;33.67;26.67;;;;;;;;5127941;27;45741;-71
2022/11/26 00:32:23;;;;;;;;;24.33;22.00;;;;;;;;5132520;27;45686;-71
2022/11/26 00:34:48;;;;;;;;;37.00;29.67;;;;;;;;5120011;27;45485;-72
2022/11/26 00:37:21;;;;;;;;;33.33;28.00;;;;;;;;5121222;27;45752;-71
2022/11/26 00:39:46;;;;;;;;;30.67;25.00;;;;;;;;5135325;27;46238;-72
2022/11/26 00:42:12;;;;;;;;;32.33;29.33;;;;;;;;5115732;27;45412;-71
2022/11/26 00:44:37;;;;;;;;;41.33;29.67;;;;;;;;5097270;27;45878;-71
2022/11/26 00:47:02;;;;;;;;;34.33;30.00;;;;;;;;5103391;27;45910;-71
2022/11/26 00:49:28;;;;;;;;;31.00;27.67;;;;;;;;5118019;27;46411;-73
2022/11/26 00:51:53;;;;;;;;;39.25;34.75;;;;;;;;5126891;27;45389;-71
2022/11/26 00:54:19;;;;;;;;;36.50;31.75;;;;;;;;5118946;27;45497;-73
2022/11/26 00:56:45;;;;;;;;;35.25;31.25;;;;;;;;5122696;27;45572;-70
2022/11/26 00:59:14;;;;;;;;;37.67;31.00;;;;;;;;5117540;27;45899;-71
2022/11/26 01:01:39;;;;;;;;;31.00;25.33;;;;;;;;5127609;27;45883;-71
2022/11/26 01:04:05;;;;;;;;;27.67;22.67;;;;;;;;5127038;27;45782;-71
2022/11/26 01:06:33;;;;;;;;;29.00;25.00;;;;;;;;5126578;27;45738;-70
2022/11/26 01:08:58;;;;;;;;;28.33;28.00;;;;;;;;5135718;27;46016;-71
2022/11/26 01:11:24;;;;;;;;;29.00;25.00;;;;;;;;5123587;27;45732;-72
2022/11/26 01:13:50;;;;;;;;;26.67;23.33;;;;;;;;5120708;27;45699;-71
2022/11/26 01:16:25;;;;;;;;;26.00;22.33;;;;;;;;5107214;27;45703;-72
2022/11/26 01:18:51;;;;;;;;;42.33;32.67;;;;;;;;5130293;27;45594;-73
2022/11/26 01:21:17;;;;;;;;;38.33;32.00;;;;;;;;5127852;27;45415;-71
2022/11/26 01:23:43;;;;;;;;;30.33;24.67;;;;;;;;5126891;27;45883;-70
2022/11/26 01:26:13;;;;;;;;;32.00;28.67;;;;;;;;5129639;27;45265;-71
2022/11/26 01:28:38;;;;;;;;;32.00;29.00;;;;;;;;5125902;27;45525;-72
2022/11/26 01:31:04;;;;;;;;;38.00;31.33;;;;;;;;5131278;27;45827;-70
2022/11/26 01:33:29;;;;;;;;;30.33;28.00;;;;;;;;5129231;27;45484;-71
2022/11/26 01:35:55;;;;;;;;;35.33;32.33;;;;;;;;5099334;27;47092;-72
2022/11/26 01:38:20;;;;;;;;;51.75;38.50;;;;;;;;5122487;27;46990;-70
2022/11/26 01:40:53;;;;;;;;;48.75;39.75;;;;;;;;5122029;27;45837;-69
2022/11/26 01:43:25;;;;;;;;;31.50;24.50;;;;;;;;5122403;27;45815;-70
2022/11/26 01:45:50;;;;;;;;;50.50;37.00;;;;;;;;5102631;27;45920;-71
2022/11/26 01:48:24;;;;;;;;;46.00;36.50;;;;;;;;5109716;27;46698;-70
2022/11/26 01:50:52;;;;;;;;;47.00;37.25;;;;;;;;5115621;27;45386;-73
2022/11/26 01:53:27;;;;;;;;;50.50;40.75;;;;;;;;5120770;27;45676;-73
2022/11/26 01:56:13;;;;;;;;;43.50;33.00;;;;;;;;5126328;27;45374;-74
2022/11/26 01:58:41;;;;;;;;;39.25;35.00;;;;;;;;5112660;27;45767;-70
2022/11/26 02:01:06;;;;;;;;;40.25;32.75;;;;;;;;5115127;27;45301;-71
2022/11/26 02:03:33;;;;;;;;;47.50;35.00;;;;;;;;5127128;27;45626;-72
2022/11/26 02:06:07;;;;;;;;;48.50;36.75;;;;;;;;5103986;27;46535;-70
2022/11/26 02:08:33;;;;;;;;;42.75;34.25;;;;;;;;5117802;27;45523;-70
2022/11/26 02:11:12;;;;;;;;;38.00;31.67;;;;;;;;5106097;27;45323;-72
2022/11/26 02:13:37;;;;;;;;;30.33;28.33;;;;;;;;5113327;27;45855;-70
2022/11/26 02:16:09;;;;;;;;;39.25;32.25;;;;;;;;5127042;27;45763;-70
2022/11/26 02:18:36;;;;;;;;;37.75;34.25;;;;;;;;5125777;27;45718;-70
2022/11/26 02:21:05;;;;;;;;;31.00;28.00;;;;;;;;5117589;27;45449;-69
2022/11/26 02:23:39;;;;;;;;;43.00;33.25;;;;;;;;5102165;27;45374;-70
2022/11/26 02:26:14;;;;;;;;;39.00;32.67;;;;;;;;5117180;27;45447;-70
2022/11/26 02:28:58;;;;;;;;;42.50;34.25;;;;;;;;5121579;27;45639;-70
2022/11/26 02:31:29;;;;;;;;;42.67;33.67;;;;;;;;5121416;27;46329;-71
2022/11/26 02:34:16;;;;;;;;;40.00;33.33;;;;;;;;5122818;27;45383;-70
2022/11/26 02:36:57;;;;;;;;;40.33;31.67;;;;;;;;5118902;27;45766;-69
2022/11/26 02:39:23;;;;;;;;;38.67;33.33;;;;;;;;5105871;27;46188;-67
2022/11/26 02:41:50;;;;;;;;;39.33;34.33;;;;;;;;5103476;27;45680;-68
2022/11/26 02:44:17;;;;;;;;;40.33;34.67;;;;;;;;5105026;27;45849;-69
2022/11/26 02:46:44;;;;;;;;;31.67;26.33;;;;;;;;5133967;27;45601;-67
2022/11/26 02:49:11;;;;;;;;;34.67;29.67;;;;;;;;5130841;27;46409;-68
2022/11/26 02:51:37;;;;;;;;;35.33;29.00;;;;;;;;5133230;27;45392;-68
2022/11/26 02:54:05;;;;;;;;;40.67;32.33;;;;;;;;5129275;27;45398;-70
2022/11/26 02:56:30;;;;;;;;;35.00;32.00;;;;;;;;5133338;27;45592;-69
2022/11/26 02:58:56;;;;;;;;;45.67;35.00;;;;;;;;5133578;27;46651;-68
2022/11/26 03:01:31;;;;;;;;;36.67;32.00;;;;;;;;5119292;27;45610;-68
2022/11/26 03:03:59;;;;;;;;;38.33;32.33;;;;;;;;5100865;27;46023;-68
2022/11/26 03:06:28;;;;;;;;;37.67;29.33;;;;;;;;5101158;27;46431;-67
2022/11/26 03:08:54;;;;;;;;;35.33;31.67;;;;;;;;5100603;27;46304;-69
2022/11/26 03:11:20;;;;;;;;;35.67;32.00;;;;;;;;5116399;27;45674;-69
2022/11/26 03:13:45;;;;;;;;;33.67;29.67;;;;;;;;5121998;27;45783;-68
2022/11/26 03:16:11;;;;;;;;;32.33;29.67;;;;;;;;5116256;27;45536;-69
2022/11/26 03:18:36;;;;;;;;;34.33;29.33;;;;;;;;5113576;27;47254;-70
2022/11/26 03:21:02;;;;;;;;;37.33;33.00;;;;;;;;5120672;27;45801;-69
2022/11/26 03:23:27;;;;;;;;;37.00;33.00;;;;;;;;5119280;27;45398;-68
2022/11/26 03:25:52;;;;;;;;;42.25;34.75;;;;;;;;5126185;27;45442;-69
2022/11/26 03:28:17;;;;;;;;;52.25;39.75;;;;;;;;5121261;27;46771;-71
2022/11/26 03:30:43;;;;;;;;;45.50;33.75;;;;;;;;5119061;27;45445;-71
2022/11/26 03:33:08;;;;;;;;;45.75;36.75;;;;;;;;5123772;27;45384;-71
2022/11/26 03:35:33;;;;;;;;;33.33;31.67;;;;;;;;5121542;27;45421;-74
2022/11/26 03:37:58;;;;;;;;;41.75;33.00;;;;;;;;5124190;27;45660;-70
2022/11/26 03:40:24;;;;;;;;;47.75;35.50;;;;;;;;5104164;27;45448;-69
2022/11/26 03:42:49;;;;;;;;;41.00;35.00;;;;;;;;5119128;27;45757;-71
2022/11/26 03:45:14;;;;;;;;;46.00;38.00;;;;;;;;5136539;27;45434;-72
2022/11/26 03:47:39;;;;;;;;;44.25;36.00;;;;;;;;5121612;27;45391;-71
2022/11/26 03:50:05;;;;;;;;;47.25;36.00;;;;;;;;5114982;27;45816;-69
2022/11/26 03:52:30;;;;;;;;;40.25;34.25;;;;;;;;5100063;27;45436;-70
2022/11/26 03:54:56;;;;;;;;;45.00;35.50;;;;;;;;5116689;27;45700;-70
2022/11/26 03:57:21;;;;;;;;;40.33;33.67;;;;;;;;5101948;27;48162;-70
2022/11/26 03:59:46;;;;;;;;;41.00;35.00;;;;;;;;5118767;27;45701;-72
2022/11/26 04:02:12;;;;;;;;;34.50;30.25;;;;;;;;5118206;27;45939;-70
2022/11/26 04:04:37;;;;;;;;;42.50;35.50;;;;;;;;5118972;27;45625;-75
2022/11/26 04:07:02;;;;;;;;;38.50;34.75;;;;;;;;5116755;27;45443;-69
2022/11/26 04:09:27;;;;;;;;;41.00;35.00;;;;;;;;5116793;27;45691;-71
2022/11/26 04:11:53;;;;;;;;;43.50;36.25;;;;;;;;5132241;27;45366;-71
2022/11/26 04:14:18;;;;;;;;;44.50;36.50;;;;;;;;5129719;27;45641;-70
2022/11/26 04:16:43;;;;;;;;;48.25;38.25;;;;;;;;5120095;27;45421;-70
2022/11/26 04:19:08;;;;;;;;;42.00;36.00;;;;;;;;5120581;27;45303;-70
2022/11/26 04:21:34;;;;;;;;;44.50;37.25;;;;;;;;5132494;27;45414;-69
2022/11/26 04:23:59;;;;;;;;;45.50;38.00;;;;;;;;5124336;27;45519;-70
2022/11/26 04:26:24;;;;;;;;;37.50;32.50;;;;;;;;5123377;27;45388;-70
2022/11/26 04:28:49;;;;;;;;;48.25;35.50;;;;;;;;5122139;27;45238;-70
2022/11/26 04:31:15;;;;;;;;;51.75;41.25;;;;;;;;5123426;27;45460;-70
2022/11/26 04:33:40;;;;;;;;;47.25;37.50;;;;;;;;5127880;27;45775;-70
2022/11/26 04:36:06;;;;;;;;;48.75;39.25;;;;;;;;5125805;27;45719;-69
2022/11/26 04:38:31;;;;;;;;;49.00;39.00;;;;;;;;5134809;27;46026;-69
2022/11/26 04:40:56;;;;;;;;;53.50;39.75;;;;;;;;5110614;27;45759;-70
2022/11/26 04:43:22;;;;;;;;;51.00;41.00;;;;;;;;5109716;27;45853;-69
2022/11/26 04:45:47;;;;;;;;;44.00;36.00;;;;;;;;5110940;27;47122;-70
2022/11/26 04:48:12;;;;;;;;;52.50;41.25;;;;;;;;5116766;27;45754;-70
2022/11/26 04:50:38;;;;;;;;;52.25;40.25;;;;;;;;5117727;27;45672;-68
2022/11/26 04:53:03;;;;;;;;;55.00;42.75;;;;;;;;5123335;27;45801;-70
2022/11/26 04:55:28;;;;;;;;;50.50;40.00;;;;;;;;5123922;27;45792;-68
2022/11/26 04:57:54;;;;;;;;;53.50;42.50;;;;;;;;5123394;27;45895;-69
2022/11/26 05:00:19;;;;;;;;;55.00;43.00;;;;;;;;5132611;27;45508;-70
2022/11/26 05:02:44;;;;;;;;;51.50;40.75;;;;;;;;5126554;27;45355;-70
2022/11/26 05:05:10;;;;;;;;;52.50;41.75;;;;;;;;5124756;27;45592;-70
2022/11/26 05:07:36;;;;;;;;;55.00;43.00;;;;;;;;5113035;27;45371;-68
2022/11/26 05:10:01;;;;;;;;;60.75;42.50;;;;;;;;5103124;27;45694;-69
2022/11/26 05:12:27;;;;;;;;;54.50;43.75;;;;;;;;5128774;27;45440;-69
2022/11/26 05:14:52;;;;;;;;;53.75;42.75;;;;;;;;5121954;27;45346;-68
2022/11/26 05:17:17;;;;;;;;;50.50;41.25;;;;;;;;5134749;27;45658;-68
2022/11/26 05:19:43;;;;;;;;;59.00;44.50;;;;;;;;5130540;27;45603;-70
2022/11/26 05:22:08;;;;;;;;;55.75;45.75;;;;;;;;5134125;27;46014;-71
2022/11/26 05:24:33;;;;;;;;;59.75;47.00;;;;;;;;5126250;27;45684;-68
2022/11/26 05:26:58;;;;;;;;;61.50;45.25;;;;;;;;5128263;27;45368;-70
2022/11/26 05:29:24;;;;;;;;;55.00;44.50;;;;;;;;5127453;27;45675;-69
2022/11/26 05:31:50;;;;;;;;;57.50;45.25;;;;;;;;5134916;27;45293;-69
2022/11/26 05:34:15;;;;;;;;;62.50;47.25;;;;;;;;5123644;27;45285;-71
2022/11/26 05:36:40;;;;;;;;;57.50;43.00;;;;;;;;5132578;27;45483;-70
2022/11/26 05:39:05;;;;;;;;;58.25;48.00;;;;;;;;5107904;27;45355;-70
2022/11/26 05:41:30;;;;;;;;;58.50;44.75;;;;;;;;5119303;27;45519;-70
2022/11/26 05:43:56;;;;;;;;;58.25;45.25;;;;;;;;5128572;27;45361;-72
2022/11/26 05:46:21;;;;;;;;;57.75;45.00;;;;;;;;5128757;27;45545;-70
2022/11/26 05:48:46;;;;;;;;;54.50;44.00;;;;;;;;5135441;27;45810;-71
2022/11/26 05:51:11;;;;;;;;;55.75;46.00;;;;;;;;5129028;27;45408;-70
2022/11/26 05:53:37;;;;;;;;;53.50;42.00;;;;;;;;5121711;27;46070;-71
2022/11/26 05:56:02;;;;;;;;;51.75;43.75;;;;;;;;5124196;27;45569;-70
2022/11/26 05:58:27;;;;;;;;;52.25;42.25;;;;;;;;5121316;27;45746;-71
2022/11/26 06:00:53;;;;;;;;;54.25;43.00;;;;;;;;5123847;27;45840;-69
2022/11/26 06:03:18;;;;;;;;;59.50;46.00;;;;;;;;5119940;27;46160;-71
2022/11/26 06:05:43;;;;;;;;;56.50;44.50;;;;;;;;5101308;27;45855;-71
2022/11/26 06:08:09;;;;;;;;;56.75;44.00;;;;;;;;5120128;27;45505;-69
2022/11/26 06:10:34;;;;;;;;;55.75;45.00;;;;;;;;5119260;27;45621;-70
2022/11/26 06:12:59;;;;;;;;;64.75;48.25;;;;;;;;5122035;27;45721;-69
2022/11/26 06:15:25;;;;;;;;;52.75;41.25;;;;;;;;5115133;27;45484;-72
2022/11/26 06:17:50;;;;;;;;;54.00;44.25;;;;;;;;5119123;27;45369;-71
2022/11/26 06:20:15;;;;;;;;;56.00;43.50;;;;;;;;5101693;27;46824;-71
2022/11/26 06:22:41;;;;;;;;;55.25;43.75;;;;;;;;5117612;27;45947;-71
2022/11/26 06:25:08;;;;;;;;;56.00;42.25;;;;;;;;5119408;27;45679;-69
2022/11/26 06:27:33;;;;;;;;;58.00;45.50;;;;;;;;5116663;27;45704;-69
2022/11/26 06:29:58;;;;;;;;;50.25;39.00;;;;;;;;5116930;27;45665;-71
2022/11/26 06:32:24;;;;;;;;;55.75;45.00;;;;;;;;5112472;27;45775;-69
2022/11/26 06:34:49;;;;;;;;;58.25;47.50;;;;;;;;5126736;27;45576;-71
2022/11/26 06:37:14;;;;;;;;;57.25;43.25;;;;;;;;5122807;27;45742;-71
2022/11/26 06:39:39;;;;;;;;;63.25;48.00;;;;;;;;5124132;27;45728;-71
2022/11/26 06:42:05;;;;;;;;;56.75;45.75;;;;;;;;5126213;27;45406;-71
2022/11/26 06:44:30;;;;;;;;;56.25;46.00;;;;;;;;5113923;27;45554;-73
2022/11/26 06:46:55;;;;;;;;;56.00;42.75;;;;;;;;5114813;27;45403;-76
2022/11/26 06:49:20;;;;;;;;;56.00;46.00;;;;;;;;5114918;27;45356;-71
2022/11/26 06:51:46;;;;;;;;;52.25;43.75;;;;;;;;5120756;27;45397;-72
2022/11/26 06:54:11;;;;;;;;;59.50;44.00;;;;;;;;5124554;27;45617;-70
2022/11/26 06:56:36;;;;;;;;;52.50;43.00;;;;;;;;5105129;27;45398;-71
2022/11/26 06:59:01;;;;;;;;;54.50;43.75;;;;;;;;5123014;27;45489;-70
2022/11/26 07:01:27;;;;;;;;;53.50;43.50;;;;;;;;5115867;27;45983;-72
2022/11/26 07:03:53;;;;;;;;;45.75;34.25;;;;;;;;5114347;27;45676;-71
2022/11/26 07:06:18;;;;;;;;;57.75;44.50;;;;;;;;5115354;27;45697;-71
2022/11/26 07:08:44;;;;;;;;;56.25;42.75;;;;;;;;5115421;27;45688;-69
2022/11/26 07:11:10;;;;;;;;;54.00;45.00;;;;;;;;5114217;27;45810;-70
2022/11/26 07:13:35;;;;;;;;;54.50;42.00;;;;;;;;5113376;27;45522;-71
2022/11/26 07:16:03;;;;;;;;;49.50;40.75;;;;;;;;5115262;27;45777;-69
2022/11/26 07:18:29;;;;;;;;;53.50;43.00;;;;;;;;5115191;27;45312;-70
2022/11/26 07:20:54;;;;;;;;;49.75;40.25;;;;;;;;5101909;27;46964;-69
2022/11/26 07:23:19;;;;;;;;;51.50;42.50;;;;;;;;5104580;27;46666;-74
2022/11/26 07:25:45;;;;;;;;;57.50;44.00;;;;;;;;5124605;27;46031;-72
2022/11/26 07:28:10;;;;;;;;;58.75;44.25;;;;;;;;5119233;27;45733;-74
2022/11/26 07:30:35;;;;;;;;;53.50;42.75;;;;;;;;5130383;27;45788;-74
2022/11/26 07:33:00;;;;;;;;;53.25;41.75;;;;;;;;5115376;27;45304;-74
2022/11/26 07:35:26;;;;;;;;;49.25;38.50;;;;;;;;5123566;27;45678;-75
2022/11/26 07:37:52;;;;;;;;;54.50;44.25;;;;;;;;5127587;27;45814;-70
2022/11/26 07:40:17;;;;;;;;;54.75;42.25;;;;;;;;5112746;27;45492;-71
2022/11/26 07:42:42;;;;;;;;;56.50;46.00;;;;;;;;5125915;27;45409;-71
2022/11/26 07:45:08;;;;;;;;;52.50;41.75;;;;;;;;5111922;27;45451;-71
2022/11/26 07:47:33;;;;;;;;;57.50;44.50;;;;;;;;5114125;27;45841;-71
2022/11/26 07:49:58;;;;;;;;;51.50;42.25;;;;;;;;5121947;27;46448;-73
2022/11/26 07:52:24;;;;;;;;;59.25;46.75;;;;;;;;5125185;27;45749;-73
2022/11/26 07:54:49;;;;;;;;;53.25;42.50;;;;;;;;5116901;27;45439;-72
2022/11/26 07:57:14;;;;;;;;;56.00;43.50;;;;;;;;5116421;27;45516;-71
2022/11/26 07:59:39;;;;;;;;;49.25;37.75;;;;;;;;5127327;27;45736;-69
2022/11/26 08:02:05;;;;;;;;;44.00;36.75;;;;;;;;5116723;27;45438;-67
2022/11/26 08:04:30;;;;;;;;;55.50;43.00;;;;;;;;5116547;27;45826;-67
2022/11/26 08:06:55;;;;;;;;;46.25;38.00;;;;;;;;5098455;27;45522;-70
2022/11/26 08:09:21;;;;;;;;;48.75;38.25;;;;;;;;5111342;27;46611;-68
2022/11/26 08:11:46;;;;;;;;;56.00;42.00;;;;;;;;5131177;27;45309;-70
2022/11/26 08:14:11;;;;;;;;;51.50;39.50;;;;;;;;5130494;27;45741;-71
2022/11/26 08:16:37;;;;;;;;;53.50;40.75;;;;;;;;5132673;27;45435;-69
2022/11/26 08:19:04;;;;;;;;;48.25;39.75;;;;;;;;5128356;27;46512;-68
2022/11/26 08:21:30;;;;;;;;;54.00;43.25;;;;;;;;5121624;27;45441;-68
2022/11/26 08:23:55;;;;;;;;;50.25;41.25;;;;;;;;5126470;27;45632;-67
2022/11/26 08:26:20;;;;;;;;;60.25;44.75;;;;;;;;5109894;27;45818;-68
2022/11/26 08:28:46;;;;;;;;;48.00;38.25;;;;;;;;5116133;27;45368;-68
2022/11/26 08:31:12;;;;;;;;;54.00;42.00;;;;;;;;5116409;27;45340;-66
2022/11/26 08:33:38;;;;;;;;;62.00;47.25;;;;;;;;5120324;27;45459;-66
2022/11/26 08:36:05;;;;;;;;;53.25;43.25;;;;;;;;5106296;27;47076;-72
2022/11/26 08:38:31;;;;;;;;;54.50;43.50;;;;;;;;5122557;27;46768;-73
2022/11/26 08:41:07;;;;;;;;;56.50;41.25;;;;;;;;5105186;27;45845;-68
2022/11/26 08:43:35;;;;;;;;;49.75;41.00;;;;;;;;5124787;27;45831;-71
2022/11/26 08:46:00;;;;;;;;;50.75;41.75;;;;;;;;5124989;27;45937;-75
2022/11/26 08:48:27;;;;;;;;;40.50;34.75;;;;;;;;5121288;27;45423;-71
2022/11/26 08:51:03;;;;;;;;;37.50;31.75;;;;;;;;5118316;27;46042;-73
2022/11/26 08:53:28;;;;;;;;;44.50;35.00;;;;;;;;5120759;27;45782;-73
2022/11/26 08:56:00;;;;;;;;;46.00;37.00;;;;;;;;5100950;27;47151;-70
2022/11/26 08:58:26;;;;;;;;;48.00;35.00;;;;;;;;5118235;27;46188;-71
2022/11/26 09:00:52;;;;;;;;;26.33;23.00;;;;;;;;5122114;27;45433;-70
2022/11/26 09:03:17;;;;;;;;;22.33;18.67;;;;;;;;5115827;27;45909;-74
2022/11/26 09:05:42;;;;;;;;;19.67;18.00;;;;;;;;5125220;27;45880;-69
2022/11/26 09:08:07;;;;;;;;;20.00;17.00;;;;;;;;5105527;27;47630;-70
2022/11/26 09:10:33;;;;;;;;;20.33;17.00;;;;;;;;5119077;27;45336;-70
2022/11/26 09:12:58;;;;;;;;;22.00;21.33;;;;;;;;5124455;27;45859;-71
2022/11/26 09:15:23;;;;;;;;;24.33;20.00;;;;;;;;5128317;27;45763;-68
2022/11/26 09:17:48;;;;;;;;;27.00;21.00;;;;;;;;5126266;27;46680;-69
2022/11/26 09:20:14;;;;;;;;;23.67;21.33;;;;;;;;5128761;27;45425;-69
2022/11/26 09:22:40;;;;;;;;;24.00;19.00;;;;;;;;5129167;27;45406;-73
2022/11/26 09:25:05;;;;;;;;;20.33;16.67;;;;;;;;5127669;27;45731;-74
2022/11/26 09:27:32;;;;;;;;;20.33;18.67;;;;;;;;5116301;27;45648;-73
2022/11/26 09:29:57;;;;;;;;;29.67;21.00;;;;;;;;5120234;27;45463;-72
2022/11/26 09:32:22;;;;;;;;;21.00;20.33;;;;;;;;5109261;27;45986;-73
2022/11/26 09:34:47;;;;;;;;;18.67;18.67;;;;;;;;5121976;27;45381;-73
2022/11/26 09:37:12;;;;;;;;;19.67;19.00;;;;;;;;5117887;27;45418;-72
2022/11/26 09:39:38;;;;;;;;;18.00;16.67;;;;;;;;5120288;27;46298;-72
2022/11/26 09:42:04;;;;;;;;;23.33;18.67;;;;;;;;5117613;27;45919;-74
2022/11/26 09:44:29;;;;;;;;;20.67;18.67;;;;;;;;5101432;27;46145;-73
2022/11/26 09:47:13;;;;;;;;;20.67;17.00;;;;;;;;5125344;27;45540;-73
2022/11/26 09:49:53;;;;;;;;;20.67;15.67;;;;;;;;5117127;27;45328;-72
2022/11/26 09:52:20;;;;;;;;;18.00;12.67;;;;;;;;5129469;27;45709;-74
2022/11/26 09:54:46;;;;;;;;;19.67;16.33;;;;;;;;5128932;27;45364;-74
2022/11/26 09:57:18;;;;;;;;;21.00;18.00;;;;;;;;5130721;27;45491;-75
2022/11/26 09:59:45;;;;;;;;;15.00;12.67;;;;;;;;5123747;27;45802;-74
2022/11/26 10:02:11;;;;;;;;;16.00;14.33;;;;;;;;5111720;27;45402;-72
2022/11/26 10:04:38;;;;;;;;;15.67;14.00;;;;;;;;5114725;27;45467;-73
2022/11/26 10:07:03;;;;;;;;;15.00;14.00;;;;;;;;5115012;27;45689;-72
2022/11/26 10:09:37;;;;;;;;;20.00;15.67;;;;;;;;5114301;27;45544;-69
2022/11/26 10:12:05;;;;;;;;;24.67;17.00;;;;;;;;5097170;27;45390;-69
2022/11/26 10:14:51;;;;;;;;;17.33;15.67;;;;;;;;5116170;27;45341;-70
2022/11/26 10:17:21;;;;;;;;;17.00;15.00;;;;;;;;5117420;27;45989;-70
2022/11/26 10:19:58;;;;;;;;;17.00;13.33;;;;;;;;5117648;27;45538;-70
2022/11/26 10:22:27;;;;;;;;;18.00;17.00;;;;;;;;5120692;27;45294;-70
2022/11/26 10:24:54;;;;;;;;;15.00;12.67;;;;;;;;5122616;27;46029;-72
2022/11/26 10:27:22;;;;;;;;;26.00;20.50;;;;;;;;5118439;27;45462;-69
2022/11/26 10:29:49;;;;;;;;;18.33;18.33;;;;;;;;5125674;27;45416;-71
2022/11/26 10:32:37;;;;;;;;;16.33;13.67;;;;;;;;5132774;27;45787;-71
2022/11/26 10:35:03;;;;;;;;;22.67;20.33;;;;;;;;5097459;27;45812;-69
2022/11/26 10:37:28;;;;;;;;;15.33;11.67;;;;;;;;5125807;27;45691;-70
2022/11/26 10:40:12;;;;;;;;;21.00;17.00;;;;;;;;5110931;27;45646;-68
2022/11/26 10:42:39;;;;;;;;;20.33;18.67;;;;;;;;5124694;27;45341;-69
2022/11/26 10:45:15;;;;;;;;;29.33;23.67;;;;;;;;5133917;27;45519;-69
2022/11/26 10:47:41;;;;;;;;;24.33;18.00;;;;;;;;5133534;27;46511;-70
2022/11/26 10:50:06;;;;;;;;;24.67;19.33;;;;;;;;5124772;27;45749;-70
2022/11/26 10:52:32;;;;;;;;;23.00;18.67;;;;;;;;5117755;27;45387;-69
2022/11/26 10:55:16;;;;;;;;;21.33;19.67;;;;;;;;5103256;27;46920;-69
2022/11/26 10:57:46;;;;;;;;;25.67;18.67;;;;;;;;5131735;27;47091;-70
2022/11/26 11:00:27;;;;;;;;;18.67;16.33;;;;;;;;5122430;27;45390;-70
2022/11/26 11:02:52;;;;;;;;;20.33;19.00;;;;;;;;5121175;27;45733;-70
2022/11/26 11:05:19;;;;;;;;;20.67;18.00;;;;;;;;5112164;27;45845;-68
2022/11/26 11:07:44;;;;;;;;;22.33;19.00;;;;;;;;5127399;27;45205;-70
2022/11/26 11:10:09;;;;;;;;;27.00;21.00;;;;;;;;5133202;27;45271;-70
2022/11/26 11:12:39;;;;;;;;;22.00;19.67;;;;;;;;5129070;27;45651;-69
2022/11/26 11:15:24;;;;;;;;;24.33;22.67;;;;;;;;5115326;27;45578;-68
2022/11/26 11:17:54;;;;;;;;;33.67;26.00;;;;;;;;5111854;27;45433;-70
2022/11/26 11:20:25;;;;;;;;;28.33;24.67;;;;;;;;5117804;27;45795;-70
2022/11/26 11:23:02;;;;;;;;;23.67;18.67;;;;;;;;5119235;27;46091;-71
2022/11/26 11:25:29;;;;;;;;;22.33;19.67;;;;;;;;5115434;27;45428;-70
2022/11/26 11:28:00;;;;;;;;;24.67;20.00;;;;;;;;5094957;27;46035;-70
2022/11/26 11:30:27;;;;;;;;;29.33;25.00;;;;;;;;5100325;27;45760;-70
2022/11/26 11:32:56;;;;;;;;;26.33;20.33;;;;;;;;5114495;27;46084;-72
2022/11/26 11:35:26;;;;;;;;;31.33;25.67;;;;;;;;5101659;27;47198;-71
2022/11/26 11:37:52;;;;;;;;;26.33;18.00;;;;;;;;5098775;27;46918;-72
2022/11/26 11:40:24;;;;;;;;;31.00;24.33;;;;;;;;5112431;27;45313;-71
2022/11/26 11:42:50;;;;;;;;;31.67;25.33;;;;;;;;5114599;27;46003;-74
2022/11/26 11:45:26;;;;;;;;;210.50;177.25;;;;;;;;5124333;27;46025;-73
2022/11/26 11:48:06;;;;;;;;;49.33;36.33;;;;;;;;5121504;27;45903;-75
2022/11/26 11:50:34;;;;;;;;;25.33;24.33;;;;;;;;5102363;27;45702;-74
2022/11/26 11:53:15;;;;;;;;;27.33;25.33;;;;;;;;5120780;27;45580;-74
2022/11/26 11:55:57;;;;;;;;;26.00;22.67;;;;;;;;5099294;27;45506;-73
2022/11/26 11:58:40;;;;;;;;;30.33;25.00;;;;;;;;5128519;27;45886;-70
2022/11/26 12:01:19;;;;;;;;;32.67;25.67;;;;;;;;5125972;27;45463;-74
2022/11/26 12:03:44;;;;;;;;;29.33;25.33;;;;;;;;5121429;27;45683;-73
2022/11/26 12:06:12;;;;;;;;;42.67;30.00;;;;;;;;5100361;27;45314;-72
2022/11/26 12:08:38;;;;;;;;;35.67;27.33;;;;;;;;5119420;27;45495;-70
2022/11/26 12:11:21;;;;;;;;;25.33;24.00;;;;;;;;5105555;27;45468;-70
2022/11/26 12:13:52;;;;;;;;;32.67;27.33;;;;;;;;5123067;27;45860;-70
2022/11/26 12:16:19;;;;;;;;;36.33;27.67;;;;;;;;5100232;27;47515;-69
2022/11/26 12:18:55;;;;;;;;;114.25;99.25;;;;;;;;5115925;27;46180;-69
2022/11/26 12:21:46;;;;;;;;;68.25;50.75;;;;;;;;5123133;27;45664;-68
2022/11/26 12:24:12;;;;;;;;;37.33;31.33;;;;;;;;5111036;27;45805;-70
2022/11/26 12:26:41;;;;;;;;;34.33;26.00;;;;;;;;5122869;27;45506;-69
2022/11/26 12:29:12;;;;;;;;;46.67;38.33;;;;;;;;5117989;27;46322;-69
2022/11/26 12:31:40;;;;;;;;;38.33;29.33;;;;;;;;5123702;27;46022;-69
2022/11/26 12:34:21;;;;;;;;;44.33;34.67;;;;;;;;5121997;27;45432;-68
2022/11/26 12:36:51;;;;;;;;;34.67;31.00;;;;;;;;5121558;27;46649;-70
2022/11/26 12:39:38;;;;;;;;;38.00;32.00;;;;;;;;5111170;27;48403;-70
2022/11/26 12:42:19;;;;;;;;;36.67;30.00;;;;;;;;5118131;27;45435;-69
2022/11/26 12:44:48;;;;;;;;;27.67;26.67;;;;;;;;5111083;27;45633;-69
2022/11/26 12:47:17;;;;;;;;;35.33;27.00;;;;;;;;5102866;27;45790;-69
2022/11/26 12:49:54;;;;;;;;;35.67;28.00;;;;;;;;5122749;27;45935;-70
2022/11/26 12:52:27;;;;;;;;;32.67;30.00;;;;;;;;5121987;27;45427;-70
2022/11/26 12:54:55;;;;;;;;;31.67;27.67;;;;;;;;5118981;27;45557;-69
2022/11/26 12:57:40;;;;;;;;;28.67;24.67;;;;;;;;5108449;27;45929;-69
2022/11/26 13:00:15;;;;;;;;;34.33;28.00;;;;;;;;5101874;27;47121;-71
2022/11/26 13:02:44;;;;;;;;;33.67;29.00;;;;;;;;5126967;27;45555;-70
2022/11/26 13:05:18;;;;;;;;;22.67;21.67;;;;;;;;5119770;27;45783;-70
2022/11/26 13:08:09;;;;;;;;;30.33;25.00;;;;;;;;5122842;27;45582;-70
2022/11/26 13:10:37;;;;;;;;;28.67;24.33;;;;;;;;5096095;27;45824;-71
2022/11/26 13:13:21;;;;;;;;;27.67;23.33;;;;;;;;5127854;27;45616;-69
2022/11/26 13:16:00;;;;;;;;;32.67;28.67;;;;;;;;5121544;27;45686;-71
2022/11/26 13:18:30;;;;;;;;;30.00;26.00;;;;;;;;5127076;27;46565;-70
2022/11/26 13:20:56;;;;;;;;;25.33;20.00;;;;;;;;5130735;27;45576;-71
2022/11/26 13:23:27;;;;;;;;;31.67;28.00;;;;;;;;5131844;27;45511;-69
2022/11/26 13:26:01;;;;;;;;;27.67;24.00;;;;;;;;5116220;27;45407;-71
2022/11/26 13:28:42;;;;;;;;;24.67;23.33;;;;;;;;5119634;27;45342;-74
2022/11/26 13:31:07;;;;;;;;;23.67;23.67;;;;;;;;5125997;27;46749;-73
2022/11/26 13:33:35;;;;;;;;;29.00;24.33;;;;;;;;5117191;27;45570;-72
2022/11/26 13:36:07;;;;;;;;;27.33;24.00;;;;;;;;5129191;27;45366;-76
2022/11/26 13:38:44;;;;;;;;;26.00;23.67;;;;;;;;5117887;27;45330;-76
2022/11/26 13:41:38;;;;;;;;;23.00;21.33;;;;;;;;5130895;27;45588;-72
2022/11/26 13:44:15;;;;;;;;;27.33;22.00;;;;;;;;5051499;27;45697;-73
2022/11/26 13:46:40;;;;;;;;;25.33;24.67;;;;;;;;5115642;27;45710;-73
2022/11/26 13:49:29;;;;;;;;;23.00;19.67;;;;;;;;5120308;27;45718;-72
2022/11/26 13:51:57;;;;;;;;;28.33;24.00;;;;;;;;5107837;27;47723;-71
2022/11/26 13:54:25;;;;;;;;;26.67;24.67;;;;;;;;5109591;27;45547;-71
2022/11/26 13:57:00;;;;;;;;;31.00;24.67;;;;;;;;5119815;27;45774;-72
2022/11/26 13:59:25;;;;;;;;;29.33;23.67;;;;;;;;5125068;27;45809;-71
2022/11/26 14:01:50;;;;;;;;;21.67;21.00;;;;;;;;5119260;27;45463;-72
2022/11/26 14:04:21;;;;;;;;;22.00;21.00;;;;;;;;5128741;27;46468;-75
2022/11/26 14:07:05;;;;;;;;;23.00;21.00;;;;;;;;5124008;27;45620;-75
2022/11/26 14:09:45;;;;;;;;;22.00;21.67;;;;;;;;5128049;27;45838;-77
2022/11/26 14:12:11;;;;;;;;;23.67;18.00;;;;;;;;5099352;27;48590;-74
2022/11/26 14:14:37;;;;;;;;;17.00;17.00;;;;;;;;5116102;27;45492;-74
2022/11/26 14:17:03;;;;;;;;;22.67;18.67;;;;;;;;5123420;27;45323;-75
2022/11/26 14:19:41;;;;;;;;;23.00;20.00;;;;;;;;5122695;27;46564;-74
2022/11/26 14:22:07;;;;;;;;;23.67;18.33;;;;;;;;5119833;27;46605;-74